sensor_id;sensor_type;location;lat;lon;timestamp;temperature;humidity
47336;DHT22;33068;51.990;5.926;2022-08-18T00:02:11;19.30;99.90
47336;DHT22;33068;51.990;5.926;2022-08-18T00:04:39;19.30;99.90
47336;DHT22;33068;51.990;5.926;2022-08-18T00:07:12;19.30;99.90
47336;DHT22;33068;51.990;5.926;2022-08-18T00:09:43;19.30;99.90
47336;DHT22;33068;51.990;5.926;2022-08-18T00:12:15;19.20;99.90
47336;DHT22;33068;51.990;5.926;2022-08-18T00:14:43;19.30;99.90
47336;DHT22;33068;51.990;5.926;2022-08-18T00:17:10;19.30;99.90
47336;DHT22;33068;51.990;5.926;2022-08-18T00:19:37;19.20;99.90
47336;DHT22;33068;51.990;5.926;2022-08-18T00:22:04;19.20;99.90
47336;DHT22;33068;51.990;5.926;2022-08-18T00:24:32;19.20;99.90
47336;DHT22;33068;51.990;5.926;2022-08-18T00:27:00;19.20;99.90
47336;DHT22;33068;51.990;5.926;2022-08-18T00:29:28;19.20;99.90
47336;DHT22;33068;51.990;5.926;2022-08-18T00:31:55;19.20;99.90
47336;DHT22;33068;51.990;5.926;2022-08-18T00:34:22;19.20;99.90
47336;DHT22;33068;51.990;5.926;2022-08-18T00:36:49;19.20;99.90
47336;DHT22;33068;51.990;5.926;2022-08-18T00:39:16;19.20;99.90
47336;DHT22;33068;51.990;5.926;2022-08-18T00:41:43;19.20;99.90
47336;DHT22;33068;51.990;5.926;2022-08-18T00:44:12;19.20;99.90
47336;DHT22;33068;51.990;5.926;2022-08-18T00:46:41;19.20;99.90
47336;DHT22;33068;51.990;5.926;2022-08-18T00:49:08;19.20;99.90
47336;DHT22;33068;51.990;5.926;2022-08-18T00:51:38;19.20;99.90
47336;DHT22;33068;51.990;5.926;2022-08-18T00:54:11;19.20;99.90
47336;DHT22;33068;51.990;5.926;2022-08-18T00:56:44;19.10;99.90
47336;DHT22;33068;51.990;5.926;2022-08-18T00:59:19;19.10;99.90
47336;DHT22;33068;51.990;5.926;2022-08-18T01:01:49;19.20;99.90
47336;DHT22;33068;51.990;5.926;2022-08-18T01:04:19;19.20;99.90
47336;DHT22;33068;51.990;5.926;2022-08-18T01:06:51;19.10;99.90
47336;DHT22;33068;51.990;5.926;2022-08-18T01:09:19;19.10;99.90
47336;DHT22;33068;51.990;5.926;2022-08-18T01:11:47;19.00;99.90
47336;DHT22;33068;51.990;5.926;2022-08-18T01:14:17;19.00;99.90
47336;DHT22;33068;51.990;5.926;2022-08-18T01:16:46;19.00;99.90
47336;DHT22;33068;51.990;5.926;2022-08-18T01:19:31;19.00;99.90
47336;DHT22;33068;51.990;5.926;2022-08-18T01:22:22;19.00;99.90
47336;DHT22;33068;51.990;5.926;2022-08-18T01:24:55;19.00;99.90
47336;DHT22;33068;51.990;5.926;2022-08-18T01:27:40;19.00;99.90
47336;DHT22;33068;51.990;5.926;2022-08-18T01:30:10;19.00;99.90
47336;DHT22;33068;51.990;5.926;2022-08-18T01:32:38;19.00;99.90
47336;DHT22;33068;51.990;5.926;2022-08-18T01:35:07;18.90;99.90
47336;DHT22;33068;51.990;5.926;2022-08-18T01:37:36;19.00;99.90
47336;DHT22;33068;51.990;5.926;2022-08-18T01:40:06;18.90;99.90
47336;DHT22;33068;51.990;5.926;2022-08-18T01:42:35;18.90;99.90
47336;DHT22;33068;51.990;5.926;2022-08-18T01:45:04;18.90;99.90
47336;DHT22;33068;51.990;5.926;2022-08-18T01:47:33;18.90;99.90
47336;DHT22;33068;51.990;5.926;2022-08-18T01:50:01;18.90;99.90
47336;DHT22;33068;51.990;5.926;2022-08-18T01:52:30;18.90;99.90
47336;DHT22;33068;51.990;5.926;2022-08-18T01:54:58;18.90;99.90
47336;DHT22;33068;51.990;5.926;2022-08-18T01:57:27;18.90;99.90
47336;DHT22;33068;51.990;5.926;2022-08-18T01:59:55;18.90;99.90
47336;DHT22;33068;51.990;5.926;2022-08-18T02:02:37;18.80;99.90
47336;DHT22;33068;51.990;5.926;2022-08-18T02:05:09;18.80;99.90
47336;DHT22;33068;51.990;5.926;2022-08-18T02:07:37;18.80;99.90
47336;DHT22;33068;51.990;5.926;2022-08-18T02:10:05;18.80;99.90
47336;DHT22;33068;51.990;5.926;2022-08-18T02:12:34;18.70;99.90
47336;DHT22;33068;51.990;5.926;2022-08-18T02:15:02;18.70;99.90
47336;DHT22;33068;51.990;5.926;2022-08-18T02:17:36;18.70;99.90
47336;DHT22;33068;51.990;5.926;2022-08-18T02:20:05;18.70;99.90
47336;DHT22;33068;51.990;5.926;2022-08-18T02:22:33;18.70;99.90
47336;DHT22;33068;51.990;5.926;2022-08-18T02:25:00;18.70;99.90
47336;DHT22;33068;51.990;5.926;2022-08-18T02:27:27;18.60;99.90
47336;DHT22;33068;51.990;5.926;2022-08-18T02:29:58;18.60;99.90
47336;DHT22;33068;51.990;5.926;2022-08-18T02:32:26;18.60;99.90
47336;DHT22;33068;51.990;5.926;2022-08-18T02:34:53;18.60;99.90
47336;DHT22;33068;51.990;5.926;2022-08-18T02:37:20;18.50;99.90
47336;DHT22;33068;51.990;5.926;2022-08-18T02:39:48;18.60;99.90
47336;DHT22;33068;51.990;5.926;2022-08-18T02:42:16;18.60;99.90
47336;DHT22;33068;51.990;5.926;2022-08-18T02:44:43;18.60;99.90
47336;DHT22;33068;51.990;5.926;2022-08-18T02:47:13;18.60;99.90
47336;DHT22;33068;51.990;5.926;2022-08-18T02:49:40;18.60;99.90
47336;DHT22;33068;51.990;5.926;2022-08-18T02:52:08;18.70;99.90
47336;DHT22;33068;51.990;5.926;2022-08-18T02:54:35;18.60;99.90
47336;DHT22;33068;51.990;5.926;2022-08-18T02:57:06;18.60;99.90
47336;DHT22;33068;51.990;5.926;2022-08-18T02:59:35;18.60;99.90
47336;DHT22;33068;51.990;5.926;2022-08-18T03:02:04;18.60;99.90
47336;DHT22;33068;51.990;5.926;2022-08-18T03:04:36;18.50;99.90
47336;DHT22;33068;51.990;5.926;2022-08-18T03:07:05;18.50;99.90
47336;DHT22;33068;51.990;5.926;2022-08-18T03:09:34;18.50;99.90
47336;DHT22;33068;51.990;5.926;2022-08-18T03:12:03;18.60;99.90
47336;DHT22;33068;51.990;5.926;2022-08-18T03:14:32;18.50;99.90
47336;DHT22;33068;51.990;5.926;2022-08-18T03:17:03;18.60;99.90
47336;DHT22;33068;51.990;5.926;2022-08-18T03:19:30;18.50;99.90
47336;DHT22;33068;51.990;5.926;2022-08-18T03:21:59;18.50;99.90
47336;DHT22;33068;51.990;5.926;2022-08-18T03:24:27;18.40;99.90
47336;DHT22;33068;51.990;5.926;2022-08-18T03:26:55;18.50;99.90
47336;DHT22;33068;51.990;5.926;2022-08-18T03:29:23;18.50;99.90
47336;DHT22;33068;51.990;5.926;2022-08-18T03:31:50;18.50;99.90
47336;DHT22;33068;51.990;5.926;2022-08-18T03:34:18;18.50;99.90
47336;DHT22;33068;51.990;5.926;2022-08-18T03:36:47;18.50;99.90
47336;DHT22;33068;51.990;5.926;2022-08-18T03:39:17;18.50;99.90
47336;DHT22;33068;51.990;5.926;2022-08-18T03:41:45;18.60;99.90
47336;DHT22;33068;51.990;5.926;2022-08-18T03:44:13;18.60;99.90
47336;DHT22;33068;51.990;5.926;2022-08-18T03:46:43;18.80;99.90
47336;DHT22;33068;51.990;5.926;2022-08-18T03:49:11;18.60;99.90
47336;DHT22;33068;51.990;5.926;2022-08-18T03:51:41;18.60;99.90
47336;DHT22;33068;51.990;5.926;2022-08-18T03:54:09;18.60;99.90
47336;DHT22;33068;51.990;5.926;2022-08-18T03:56:40;18.60;99.90
47336;DHT22;33068;51.990;5.926;2022-08-18T03:59:10;18.60;99.90
47336;DHT22;33068;51.990;5.926;2022-08-18T04:01:39;18.60;99.90
47336;DHT22;33068;51.990;5.926;2022-08-18T04:04:08;18.60;99.90
47336;DHT22;33068;51.990;5.926;2022-08-18T04:06:39;18.60;99.90
47336;DHT22;33068;51.990;5.926;2022-08-18T04:09:09;18.60;99.90
47336;DHT22;33068;51.990;5.926;2022-08-18T04:11:38;18.70;99.90
47336;DHT22;33068;51.990;5.926;2022-08-18T04:14:08;18.60;99.90
47336;DHT22;33068;51.990;5.926;2022-08-18T04:16:35;18.60;99.90
47336;DHT22;33068;51.990;5.926;2022-08-18T04:19:03;18.60;99.90
47336;DHT22;33068;51.990;5.926;2022-08-18T04:21:31;18.60;99.90
47336;DHT22;33068;51.990;5.926;2022-08-18T04:23:59;18.60;99.90
47336;DHT22;33068;51.990;5.926;2022-08-18T04:26:30;18.60;99.90
47336;DHT22;33068;51.990;5.926;2022-08-18T04:28:59;18.60;99.90
47336;DHT22;33068;51.990;5.926;2022-08-18T04:31:28;18.70;99.90
47336;DHT22;33068;51.990;5.926;2022-08-18T04:33:57;18.60;99.90
47336;DHT22;33068;51.990;5.926;2022-08-18T04:36:25;18.70;99.90
47336;DHT22;33068;51.990;5.926;2022-08-18T04:38:52;18.70;99.90
47336;DHT22;33068;51.990;5.926;2022-08-18T04:41:20;18.70;99.90
47336;DHT22;33068;51.990;5.926;2022-08-18T04:43:48;18.70;99.90
47336;DHT22;33068;51.990;5.926;2022-08-18T04:46:18;18.60;99.90
47336;DHT22;33068;51.990;5.926;2022-08-18T04:48:45;18.70;99.90
47336;DHT22;33068;51.990;5.926;2022-08-18T04:51:16;18.70;99.90
47336;DHT22;33068;51.990;5.926;2022-08-18T04:53:44;18.70;99.90
47336;DHT22;33068;51.990;5.926;2022-08-18T04:56:16;18.70;99.90
47336;DHT22;33068;51.990;5.926;2022-08-18T04:58:46;18.70;99.90
47336;DHT22;33068;51.990;5.926;2022-08-18T05:01:19;18.70;99.90
47336;DHT22;33068;51.990;5.926;2022-08-18T05:03:47;18.80;99.90
47336;DHT22;33068;51.990;5.926;2022-08-18T05:06:16;18.80;99.90
47336;DHT22;33068;51.990;5.926;2022-08-18T05:08:44;18.70;99.90
47336;DHT22;33068;51.990;5.926;2022-08-18T05:11:11;18.70;99.90
47336;DHT22;33068;51.990;5.926;2022-08-18T05:13:39;18.70;99.90
47336;DHT22;33068;51.990;5.926;2022-08-18T05:16:06;18.70;99.90
47336;DHT22;33068;51.990;5.926;2022-08-18T05:18:35;18.70;99.90
47336;DHT22;33068;51.990;5.926;2022-08-18T05:21:04;18.80;99.90
47336;DHT22;33068;51.990;5.926;2022-08-18T05:23:31;18.80;99.90
47336;DHT22;33068;51.990;5.926;2022-08-18T05:26:00;18.80;99.90
47336;DHT22;33068;51.990;5.926;2022-08-18T05:28:28;18.80;99.90
47336;DHT22;33068;51.990;5.926;2022-08-18T05:30:56;18.80;99.90
47336;DHT22;33068;51.990;5.926;2022-08-18T05:33:23;18.90;99.90
47336;DHT22;33068;51.990;5.926;2022-08-18T05:36:03;18.80;99.90
47336;DHT22;33068;51.990;5.926;2022-08-18T05:38:40;18.80;99.90
47336;DHT22;33068;51.990;5.926;2022-08-18T05:41:17;18.80;99.90
47336;DHT22;33068;51.990;5.926;2022-08-18T05:43:46;18.80;99.90
47336;DHT22;33068;51.990;5.926;2022-08-18T05:46:14;18.80;99.90
47336;DHT22;33068;51.990;5.926;2022-08-18T05:48:41;18.80;99.90
47336;DHT22;33068;51.990;5.926;2022-08-18T05:51:14;18.70;99.90
47336;DHT22;33068;51.990;5.926;2022-08-18T05:53:43;18.80;99.90
47336;DHT22;33068;51.990;5.926;2022-08-18T05:56:33;18.90;99.90
47336;DHT22;33068;51.990;5.926;2022-08-18T05:59:17;18.90;99.90
47336;DHT22;33068;51.990;5.926;2022-08-18T06:01:48;19.00;99.90
47336;DHT22;33068;51.990;5.926;2022-08-18T06:04:26;19.10;99.90
47336;DHT22;33068;51.990;5.926;2022-08-18T06:07:02;19.20;99.90
47336;DHT22;33068;51.990;5.926;2022-08-18T06:09:33;19.30;99.90
47336;DHT22;33068;51.990;5.926;2022-08-18T06:12:08;19.30;99.90
47336;DHT22;33068;51.990;5.926;2022-08-18T06:14:38;19.30;99.90
47336;DHT22;33068;51.990;5.926;2022-08-18T06:17:16;19.40;99.90
47336;DHT22;33068;51.990;5.926;2022-08-18T06:19:49;19.70;99.90
47336;DHT22;33068;51.990;5.926;2022-08-18T06:22:27;19.50;99.90
47336;DHT22;33068;51.990;5.926;2022-08-18T06:25:02;19.50;99.90
47336;DHT22;33068;51.990;5.926;2022-08-18T06:27:37;19.60;99.90
47336;DHT22;33068;51.990;5.926;2022-08-18T06:30:12;19.70;99.90
47336;DHT22;33068;51.990;5.926;2022-08-18T06:33:01;19.80;99.90
47336;DHT22;33068;51.990;5.926;2022-08-18T06:35:36;19.90;99.90
47336;DHT22;33068;51.990;5.926;2022-08-18T06:38:26;20.00;99.90
47336;DHT22;33068;51.990;5.926;2022-08-18T06:41:13;20.00;99.90
47336;DHT22;33068;51.990;5.926;2022-08-18T06:43:55;20.10;99.90
47336;DHT22;33068;51.990;5.926;2022-08-18T06:46:30;20.20;99.90
47336;DHT22;33068;51.990;5.926;2022-08-18T06:49:03;20.10;99.90
47336;DHT22;33068;51.990;5.926;2022-08-18T06:51:30;20.20;99.90
47336;DHT22;33068;51.990;5.926;2022-08-18T06:54:02;20.30;99.90
47336;DHT22;33068;51.990;5.926;2022-08-18T06:56:44;20.20;99.90
47336;DHT22;33068;51.990;5.926;2022-08-18T06:59:15;20.30;99.90
47336;DHT22;33068;51.990;5.926;2022-08-18T07:01:44;20.50;99.90
47336;DHT22;33068;51.990;5.926;2022-08-18T07:04:31;20.50;99.90
47336;DHT22;33068;51.990;5.926;2022-08-18T07:07:15;20.40;99.90
47336;DHT22;33068;51.990;5.926;2022-08-18T07:09:45;20.50;99.90
47336;DHT22;33068;51.990;5.926;2022-08-18T07:12:20;20.70;99.90
47336;DHT22;33068;51.990;5.926;2022-08-18T07:14:49;21.00;99.90
47336;DHT22;33068;51.990;5.926;2022-08-18T07:17:21;20.90;99.90
47336;DHT22;33068;51.990;5.926;2022-08-18T07:19:58;20.90;99.90
47336;DHT22;33068;51.990;5.926;2022-08-18T07:22:26;20.90;99.90
47336;DHT22;33068;51.990;5.926;2022-08-18T07:24:57;21.00;99.90
47336;DHT22;33068;51.990;5.926;2022-08-18T07:27:46;21.00;99.90
47336;DHT22;33068;51.990;5.926;2022-08-18T07:30:27;21.00;99.90
47336;DHT22;33068;51.990;5.926;2022-08-18T07:32:58;21.00;99.90
47336;DHT22;33068;51.990;5.926;2022-08-18T07:35:31;21.10;99.90
47336;DHT22;33068;51.990;5.926;2022-08-18T07:38:03;21.00;99.90
47336;DHT22;33068;51.990;5.926;2022-08-18T07:40:37;21.00;99.90
47336;DHT22;33068;51.990;5.926;2022-08-18T07:43:11;21.00;99.90
47336;DHT22;33068;51.990;5.926;2022-08-18T07:45:44;21.00;99.90
47336;DHT22;33068;51.990;5.926;2022-08-18T07:48:14;20.90;99.90
47336;DHT22;33068;51.990;5.926;2022-08-18T07:50:51;20.90;99.90
47336;DHT22;33068;51.990;5.926;2022-08-18T07:53:30;21.10;99.90
47336;DHT22;33068;51.990;5.926;2022-08-18T07:56:11;21.20;99.90
47336;DHT22;33068;51.990;5.926;2022-08-18T07:58:45;21.40;99.90
47336;DHT22;33068;51.990;5.926;2022-08-18T08:01:21;21.50;99.90
47336;DHT22;33068;51.990;5.926;2022-08-18T08:03:56;21.50;99.90
47336;DHT22;33068;51.990;5.926;2022-08-18T08:06:31;21.60;99.90
47336;DHT22;33068;51.990;5.926;2022-08-18T08:09:04;21.80;99.90
47336;DHT22;33068;51.990;5.926;2022-08-18T08:11:42;21.90;99.90
47336;DHT22;33068;51.990;5.926;2022-08-18T08:14:32;22.00;99.90
47336;DHT22;33068;51.990;5.926;2022-08-18T08:17:09;22.10;99.90
47336;DHT22;33068;51.990;5.926;2022-08-18T08:19:47;22.10;99.90
47336;DHT22;33068;51.990;5.926;2022-08-18T08:22:19;22.20;99.90
47336;DHT22;33068;51.990;5.926;2022-08-18T08:24:54;22.20;99.90
47336;DHT22;33068;51.990;5.926;2022-08-18T08:27:30;22.10;99.90
47336;DHT22;33068;51.990;5.926;2022-08-18T08:30:06;22.70;99.90
47336;DHT22;33068;51.990;5.926;2022-08-18T08:32:34;23.80;99.90
47336;DHT22;33068;51.990;5.926;2022-08-18T08:35:05;24.50;99.90
47336;DHT22;33068;51.990;5.926;2022-08-18T08:37:38;24.60;99.90
47336;DHT22;33068;51.990;5.926;2022-08-18T08:40:15;24.10;99.90
47336;DHT22;33068;51.990;5.926;2022-08-18T08:42:49;23.60;99.90
47336;DHT22;33068;51.990;5.926;2022-08-18T08:45:22;23.90;99.90
47336;DHT22;33068;51.990;5.926;2022-08-18T08:47:57;24.40;99.90
47336;DHT22;33068;51.990;5.926;2022-08-18T08:50:28;24.50;99.90
47336;DHT22;33068;51.990;5.926;2022-08-18T08:53:00;24.50;99.90
47336;DHT22;33068;51.990;5.926;2022-08-18T08:55:32;25.10;99.90
47336;DHT22;33068;51.990;5.926;2022-08-18T08:58:15;25.30;99.90
47336;DHT22;33068;51.990;5.926;2022-08-18T09:00:42;24.80;99.90
47336;DHT22;33068;51.990;5.926;2022-08-18T09:03:23;24.40;99.90
47336;DHT22;33068;51.990;5.926;2022-08-18T09:06:02;24.10;99.90
47336;DHT22;33068;51.990;5.926;2022-08-18T09:08:49;23.90;99.90
47336;DHT22;33068;51.990;5.926;2022-08-18T09:11:35;23.80;99.90
47336;DHT22;33068;51.990;5.926;2022-08-18T09:17:37;24.20;99.90
47336;DHT22;33068;51.990;5.926;2022-08-18T09:20:27;24.40;99.90
47336;DHT22;33068;51.990;5.926;2022-08-18T09:23:03;24.30;99.90
47336;DHT22;33068;51.990;5.926;2022-08-18T09:25:45;24.10;99.90
47336;DHT22;33068;51.990;5.926;2022-08-18T09:28:16;24.00;99.90
47336;DHT22;33068;51.990;5.926;2022-08-18T09:30:47;24.00;99.90
47336;DHT22;33068;51.990;5.926;2022-08-18T09:33:32;24.00;99.90
47336;DHT22;33068;51.990;5.926;2022-08-18T09:36:23;24.30;99.90
47336;DHT22;33068;51.990;5.926;2022-08-18T09:38:55;24.90;99.90
47336;DHT22;33068;51.990;5.926;2022-08-18T09:41:50;24.90;99.90
47336;DHT22;33068;51.990;5.926;2022-08-18T09:54:04;24.40;99.90
47336;DHT22;33068;51.990;5.926;2022-08-18T10:03:21;24.00;99.90
47336;DHT22;33068;51.990;5.926;2022-08-18T10:06:03;24.10;99.90
47336;DHT22;33068;51.990;5.926;2022-08-18T10:08:49;24.30;99.90
47336;DHT22;33068;51.990;5.926;2022-08-18T10:11:45;24.50;99.90
47336;DHT22;33068;51.990;5.926;2022-08-18T10:14:37;24.60;99.90
47336;DHT22;33068;51.990;5.926;2022-08-18T10:17:19;24.50;99.90
47336;DHT22;33068;51.990;5.926;2022-08-18T10:19:53;24.50;99.90
47336;DHT22;33068;51.990;5.926;2022-08-18T10:22:36;24.80;99.90
47336;DHT22;33068;51.990;5.926;2022-08-18T10:25:06;24.70;99.90
47336;DHT22;33068;51.990;5.926;2022-08-18T10:27:51;24.60;99.90
47336;DHT22;33068;51.990;5.926;2022-08-18T10:36:40;24.10;99.90
47336;DHT22;33068;51.990;5.926;2022-08-18T10:39:12;24.00;99.90
47336;DHT22;33068;51.990;5.926;2022-08-18T10:41:59;24.10;99.90
47336;DHT22;33068;51.990;5.926;2022-08-18T10:44:31;24.20;99.90
47336;DHT22;33068;51.990;5.926;2022-08-18T10:47:01;24.60;99.90
47336;DHT22;33068;51.990;5.926;2022-08-18T10:49:30;25.30;99.90
47336;DHT22;33068;51.990;5.926;2022-08-18T10:52:14;25.90;99.90
47336;DHT22;33068;51.990;5.926;2022-08-18T10:55:03;25.90;99.80
47336;DHT22;33068;51.990;5.926;2022-08-18T10:57:46;25.60;99.80
47336;DHT22;33068;51.990;5.926;2022-08-18T11:00:18;25.40;99.90
47336;DHT22;33068;51.990;5.926;2022-08-18T11:02:59;25.10;99.90
47336;DHT22;33068;51.990;5.926;2022-08-18T11:05:28;24.90;99.90
47336;DHT22;33068;51.990;5.926;2022-08-18T11:07:59;24.60;99.90
47336;DHT22;33068;51.990;5.926;2022-08-18T11:10:36;24.60;99.90
47336;DHT22;33068;51.990;5.926;2022-08-18T11:13:12;24.30;99.90
47336;DHT22;33068;51.990;5.926;2022-08-18T11:15:51;24.00;99.90
47336;DHT22;33068;51.990;5.926;2022-08-18T11:18:28;23.80;99.90
47336;DHT22;33068;51.990;5.926;2022-08-18T11:21:24;23.90;99.90
47336;DHT22;33068;51.990;5.926;2022-08-18T11:24:04;23.80;99.90
47336;DHT22;33068;51.990;5.926;2022-08-18T11:26:33;23.70;99.90
47336;DHT22;33068;51.990;5.926;2022-08-18T11:29:20;23.50;99.90
47336;DHT22;33068;51.990;5.926;2022-08-18T11:31:48;23.40;99.90
47336;DHT22;33068;51.990;5.926;2022-08-18T11:34:31;23.40;99.90
47336;DHT22;33068;51.990;5.926;2022-08-18T11:37:03;23.50;99.90
47336;DHT22;33068;51.990;5.926;2022-08-18T11:39:32;23.50;99.90
47336;DHT22;33068;51.990;5.926;2022-08-18T11:41:59;23.50;99.90
47336;DHT22;33068;51.990;5.926;2022-08-18T11:44:30;23.50;99.90
47336;DHT22;33068;51.990;5.926;2022-08-18T11:47:17;23.50;99.90
47336;DHT22;33068;51.990;5.926;2022-08-18T11:49:57;23.60;99.90
47336;DHT22;33068;51.990;5.926;2022-08-18T11:52:27;23.60;99.90
47336;DHT22;33068;51.990;5.926;2022-08-18T11:54:59;23.70;99.90
47336;DHT22;33068;51.990;5.926;2022-08-18T11:57:29;23.80;99.90
47336;DHT22;33068;51.990;5.926;2022-08-18T12:00:38;24.00;99.90
47336;DHT22;33068;51.990;5.926;2022-08-18T12:03:10;24.00;99.90
47336;DHT22;33068;51.990;5.926;2022-08-18T12:05:42;24.00;99.90
47336;DHT22;33068;51.990;5.926;2022-08-18T12:08:21;23.90;99.90
47336;DHT22;33068;51.990;5.926;2022-08-18T12:11:02;24.00;99.90
47336;DHT22;33068;51.990;5.926;2022-08-18T12:13:30;24.00;99.90
47336;DHT22;33068;51.990;5.926;2022-08-18T12:16:13;24.00;99.90
47336;DHT22;33068;51.990;5.926;2022-08-18T12:18:41;24.00;99.90
47336;DHT22;33068;51.990;5.926;2022-08-18T12:21:09;24.10;99.90
47336;DHT22;33068;51.990;5.926;2022-08-18T12:23:40;24.10;99.90
47336;DHT22;33068;51.990;5.926;2022-08-18T12:26:10;24.10;99.90
47336;DHT22;33068;51.990;5.926;2022-08-18T12:28:38;24.20;99.90
47336;DHT22;33068;51.990;5.926;2022-08-18T12:31:06;24.30;99.90
47336;DHT22;33068;51.990;5.926;2022-08-18T12:33:35;24.40;99.90
47336;DHT22;33068;51.990;5.926;2022-08-18T12:36:04;24.40;99.90
47336;DHT22;33068;51.990;5.926;2022-08-18T12:38:32;24.40;99.90
47336;DHT22;33068;51.990;5.926;2022-08-18T12:41:00;24.50;99.90
47336;DHT22;33068;51.990;5.926;2022-08-18T12:43:28;24.40;99.90
47336;DHT22;33068;51.990;5.926;2022-08-18T12:45:57;24.30;99.90
47336;DHT22;33068;51.990;5.926;2022-08-18T12:48:27;24.40;99.90
47336;DHT22;33068;51.990;5.926;2022-08-18T12:51:00;24.50;99.90
47336;DHT22;33068;51.990;5.926;2022-08-18T12:53:28;24.40;99.90
47336;DHT22;33068;51.990;5.926;2022-08-18T12:55:55;24.30;99.90
47336;DHT22;33068;51.990;5.926;2022-08-18T12:58:23;24.30;99.90
47336;DHT22;33068;51.990;5.926;2022-08-18T13:00:52;24.40;99.90
47336;DHT22;33068;51.990;5.926;2022-08-18T13:03:20;24.40;99.90
47336;DHT22;33068;51.990;5.926;2022-08-18T13:05:47;24.30;99.90
47336;DHT22;33068;51.990;5.926;2022-08-18T13:08:19;24.20;99.90
47336;DHT22;33068;51.990;5.926;2022-08-18T13:10:47;24.10;99.90
47336;DHT22;33068;51.990;5.926;2022-08-18T13:13:16;24.00;99.90
47336;DHT22;33068;51.990;5.926;2022-08-18T13:15:43;23.90;99.90
47336;DHT22;33068;51.990;5.926;2022-08-18T13:18:11;23.90;99.90
47336;DHT22;33068;51.990;5.926;2022-08-18T13:20:39;23.90;99.90
47336;DHT22;33068;51.990;5.926;2022-08-18T13:23:06;23.80;99.90
47336;DHT22;33068;51.990;5.926;2022-08-18T13:25:35;23.90;99.90
47336;DHT22;33068;51.990;5.926;2022-08-18T13:28:03;23.90;99.90
47336;DHT22;33068;51.990;5.926;2022-08-18T13:30:31;24.00;99.90
47336;DHT22;33068;51.990;5.926;2022-08-18T13:32:59;24.00;99.90
47336;DHT22;33068;51.990;5.926;2022-08-18T13:35:27;24.10;99.90
47336;DHT22;33068;51.990;5.926;2022-08-18T13:37:55;24.10;99.90
47336;DHT22;33068;51.990;5.926;2022-08-18T13:40:23;24.00;99.90
47336;DHT22;33068;51.990;5.926;2022-08-18T13:42:51;23.90;99.90
47336;DHT22;33068;51.990;5.926;2022-08-18T13:45:20;23.90;99.90
47336;DHT22;33068;51.990;5.926;2022-08-18T13:47:48;24.00;99.90
47336;DHT22;33068;51.990;5.926;2022-08-18T13:50:18;24.00;99.90
47336;DHT22;33068;51.990;5.926;2022-08-18T13:52:45;24.00;99.90
47336;DHT22;33068;51.990;5.926;2022-08-18T13:55:14;24.00;99.90
47336;DHT22;33068;51.990;5.926;2022-08-18T13:57:42;24.00;99.90
47336;DHT22;33068;51.990;5.926;2022-08-18T14:00:17;24.10;99.90
47336;DHT22;33068;51.990;5.926;2022-08-18T14:02:45;24.10;99.90
47336;DHT22;33068;51.990;5.926;2022-08-18T14:05:15;24.10;99.90
47336;DHT22;33068;51.990;5.926;2022-08-18T14:07:44;24.20;99.90
47336;DHT22;33068;51.990;5.926;2022-08-18T14:10:12;24.40;99.90
47336;DHT22;33068;51.990;5.926;2022-08-18T14:12:41;24.70;99.90
47336;DHT22;33068;51.990;5.926;2022-08-18T14:15:11;24.90;99.90
47336;DHT22;33068;51.990;5.926;2022-08-18T14:17:41;25.20;99.90
47336;DHT22;33068;51.990;5.926;2022-08-18T14:20:09;25.50;99.90
47336;DHT22;33068;51.990;5.926;2022-08-18T14:22:56;25.30;99.60
47336;DHT22;33068;51.990;5.926;2022-08-18T14:25:41;25.40;99.30
47336;DHT22;33068;51.990;5.926;2022-08-18T14:28:26;25.60;98.90
47336;DHT22;33068;51.990;5.926;2022-08-18T14:30:53;25.90;98.10
47336;DHT22;33068;51.990;5.926;2022-08-18T14:33:26;25.90;97.10
47336;DHT22;33068;51.990;5.926;2022-08-18T14:35:54;26.10;98.00
47336;DHT22;33068;51.990;5.926;2022-08-18T14:38:21;26.80;97.00
47336;DHT22;33068;51.990;5.926;2022-08-18T14:40:49;27.50;95.60
47336;DHT22;33068;51.990;5.926;2022-08-18T14:43:17;28.00;94.70
47336;DHT22;33068;51.990;5.926;2022-08-18T14:45:47;28.20;93.30
47336;DHT22;33068;51.990;5.926;2022-08-18T14:48:16;28.60;93.40
47336;DHT22;33068;51.990;5.926;2022-08-18T14:50:47;29.10;91.80
47336;DHT22;33068;51.990;5.926;2022-08-18T14:53:16;29.30;91.60
47336;DHT22;33068;51.990;5.926;2022-08-18T14:55:45;29.40;90.70
47336;DHT22;33068;51.990;5.926;2022-08-18T14:58:34;29.50;90.00
47336;DHT22;33068;51.990;5.926;2022-08-18T15:01:08;29.40;91.00
47336;DHT22;33068;51.990;5.926;2022-08-18T15:03:39;29.50;90.20
47336;DHT22;33068;51.990;5.926;2022-08-18T15:06:08;29.30;90.50
47336;DHT22;33068;51.990;5.926;2022-08-18T15:08:37;29.50;90.40
47336;DHT22;33068;51.990;5.926;2022-08-18T15:11:05;29.80;90.70
47336;DHT22;33068;51.990;5.926;2022-08-18T15:13:33;29.90;90.70
47336;DHT22;33068;51.990;5.926;2022-08-18T15:16:01;30.00;90.50
47336;DHT22;33068;51.990;5.926;2022-08-18T15:18:28;30.30;90.70
47336;DHT22;33068;51.990;5.926;2022-08-18T15:20:56;30.60;90.50
47336;DHT22;33068;51.990;5.926;2022-08-18T15:23:41;30.70;89.60
47336;DHT22;33068;51.990;5.926;2022-08-18T15:26:26;30.80;89.40
47336;DHT22;33068;51.990;5.926;2022-08-18T15:28:53;30.40;89.00
47336;DHT22;33068;51.990;5.926;2022-08-18T15:31:20;30.10;90.10
47336;DHT22;33068;51.990;5.926;2022-08-18T15:33:47;30.40;90.00
47336;DHT22;33068;51.990;5.926;2022-08-18T15:36:15;30.30;89.40
47336;DHT22;33068;51.990;5.926;2022-08-18T15:38:48;30.50;89.30
47336;DHT22;33068;51.990;5.926;2022-08-18T15:41:32;30.50;88.70
47336;DHT22;33068;51.990;5.926;2022-08-18T15:44:00;30.80;88.70
47336;DHT22;33068;51.990;5.926;2022-08-18T15:46:28;30.90;88.00
47336;DHT22;33068;51.990;5.926;2022-08-18T15:48:57;30.70;87.10
47336;DHT22;33068;51.990;5.926;2022-08-18T15:51:24;29.80;89.70
47336;DHT22;33068;51.990;5.926;2022-08-18T15:53:53;29.10;90.10
47336;DHT22;33068;51.990;5.926;2022-08-18T15:56:22;28.40;90.70
47336;DHT22;33068;51.990;5.926;2022-08-18T15:58:50;28.00;91.40
47336;DHT22;33068;51.990;5.926;2022-08-18T16:01:18;27.70;92.50
47336;DHT22;33068;51.990;5.926;2022-08-18T16:03:46;27.50;92.20
47336;DHT22;33068;51.990;5.926;2022-08-18T16:06:16;27.20;92.30
47336;DHT22;33068;51.990;5.926;2022-08-18T16:08:43;26.90;94.00
47336;DHT22;33068;51.990;5.926;2022-08-18T16:11:13;26.90;93.60
47336;DHT22;33068;51.990;5.926;2022-08-18T16:13:40;26.80;94.20
47336;DHT22;33068;51.990;5.926;2022-08-18T16:16:09;26.70;94.80
47336;DHT22;33068;51.990;5.926;2022-08-18T16:18:37;26.60;95.50
47336;DHT22;33068;51.990;5.926;2022-08-18T16:21:06;26.40;95.50
47336;DHT22;33068;51.990;5.926;2022-08-18T16:23:36;26.40;96.30
47336;DHT22;33068;51.990;5.926;2022-08-18T16:26:05;26.40;95.80
47336;DHT22;33068;51.990;5.926;2022-08-18T16:28:35;26.20;96.40